Terminal Aerodrome Forecast
Issued by NWS Charleston, WV

Current Version | Previous Version | Text Only | Print | Product List | Glossary Off
Versions: 1 2 3 4 5 6 7 8 9 10 11 12 13 14 15 16 17 18 19 20 21 22 23

000
FTUS41 KRLX 291137
TAFCRW
TAF
KCRW 291137Z 2912/3012 00000KT P6SM SCT140
     FM291500 21005KT P6SM BKN110
     FM300500 00000KT 6SM SHRA BR BKN040
     FM300700 00000KT P6SM BKN035
     FM300800 00000KT P6SM BKN025=

USA.gov is the U.S. government's official web portal to all federal, state and local government web resources and services.